createdAt,value
2023-03-29T03:33:21.673Z,-1.46
2023-03-29T03:36:29.185Z,-1.46
2023-03-29T03:39:32.672Z,-2.01
2023-03-29T03:42:36.197Z,-2.00
2023-03-29T03:45:39.937Z,-2.02
2023-03-29T03:48:43.658Z,-2.14
2023-03-29T03:51:46.402Z,-2.13
2023-03-29T03:54:50.357Z,-2.18
2023-03-29T03:57:54.295Z,-2.04
2023-03-29T04:00:58.102Z,-1.90
2023-03-29T04:04:03.050Z,-1.98
2023-03-29T04:07:06.830Z,-1.99
2023-03-29T04:10:11.220Z,-2.04
2023-03-29T04:13:14.864Z,-1.99
2023-03-29T04:16:21.481Z,-1.96
2023-03-29T04:19:24.612Z,-2.10
2023-03-29T04:22:27.578Z,-2.11
2023-03-29T04:25:30.354Z,-1.96
2023-03-29T04:28:36.292Z,-1.97
2023-03-29T04:31:40.054Z,-1.95
2023-03-29T04:34:44.701Z,-1.94
2023-03-29T04:37:48.329Z,-1.73
2023-03-29T04:40:51.539Z,-1.73
2023-03-29T04:43:56.084Z,-1.65
2023-03-29T04:47:00.476Z,-1.59
2023-03-29T04:50:04.782Z,-1.49
2023-03-29T04:53:08.539Z,-1.33
2023-03-29T04:56:11.503Z,-1.12
2023-03-29T04:59:16.423Z,-0.86
2023-03-29T05:02:19.638Z,-0.56
2023-03-29T05:05:22.932Z,-0.36
2023-03-29T05:08:26.287Z,-0.14
2023-03-29T05:11:29.956Z,0.09
2023-03-29T05:14:32.673Z,0.28
2023-03-29T05:17:36.074Z,0.35
2023-03-29T05:20:40.512Z,0.50
2023-03-29T05:23:44.891Z,0.53
2023-03-29T05:26:51.773Z,0.61
2023-03-29T05:29:55.444Z,0.74
2023-03-29T05:33:00.422Z,0.90
2023-03-29T05:36:11.261Z,1.14
2023-03-29T05:39:15.614Z,1.47
2023-03-29T05:42:22.638Z,1.66
2023-03-29T05:45:28.604Z,1.68
2023-03-29T05:48:32.650Z,1.89
2023-03-29T05:51:36.415Z,2.03
2023-03-29T05:54:41.416Z,2.21
2023-03-29T05:57:44.284Z,2.30
2023-03-29T06:00:49.675Z,2.39
2023-03-29T06:03:53.637Z,2.39
2023-03-29T06:06:57.524Z,2.61
2023-03-29T06:10:00.693Z,2.75
2023-03-29T06:13:03.508Z,2.90
2023-03-29T06:16:10.786Z,2.94
2023-03-29T06:19:13.642Z,3.01
2023-03-29T06:22:17.136Z,3.06
2023-03-29T06:25:21.096Z,3.35
2023-03-29T06:28:26.905Z,3.19
2023-03-29T06:31:31.415Z,3.19
2023-03-29T06:34:36.667Z,3.56
2023-03-29T06:37:49.545Z,3.69
2023-03-29T06:41:01.159Z,3.87
2023-03-29T06:44:06.040Z,4.33
2023-03-29T06:47:09.269Z,4.58
2023-03-29T06:50:12.015Z,4.89
2023-03-29T06:53:15.768Z,5.09
2023-03-29T06:56:19.505Z,5.08
2023-03-29T06:59:22.435Z,5.36
2023-03-29T07:02:25.716Z,5.36
2023-03-29T07:05:29.411Z,5.65
2023-03-29T07:08:32.749Z,5.99
2023-03-29T07:11:36.444Z,6.16
2023-03-29T07:14:39.900Z,6.09
2023-03-29T07:17:42.884Z,6.14
2023-03-29T07:20:47.622Z,6.28
2023-03-29T07:23:52.229Z,6.24
2023-03-29T07:27:03.261Z,6.21
2023-03-29T07:30:11.182Z,6.13
2023-03-29T07:33:14.274Z,6.23
2023-03-29T07:36:18.484Z,6.00
2023-03-29T07:39:22.451Z,6.31
2023-03-29T07:42:28.894Z,6.50
2023-03-29T07:45:31.949Z,6.49
2023-03-29T07:48:37.152Z,7.10
2023-03-29T07:51:40.426Z,7.04
2023-03-29T07:54:43.710Z,7.41
2023-03-29T07:57:49.251Z,7.70
2023-03-29T08:00:53.325Z,7.95
2023-03-29T08:03:57.656Z,8.18
2023-03-29T08:07:01.605Z,8.19
2023-03-29T08:10:06.826Z,8.49
2023-03-29T08:13:10.457Z,8.74
2023-03-29T08:16:13.718Z,8.49
2023-03-29T08:19:18.653Z,8.10
2023-03-29T08:22:22.393Z,7.71
2023-03-29T08:25:30.343Z,7.45
2023-03-29T08:28:33.799Z,7.29
2023-03-29T08:31:36.818Z,7.44
2023-03-29T08:34:39.832Z,7.62
2023-03-29T08:37:43.333Z,8.20
2023-03-29T08:40:49.539Z,8.15
2023-03-29T08:43:58.175Z,8.51
2023-03-29T08:47:04.161Z,8.22
2023-03-29T08:50:08.882Z,7.99
2023-03-29T08:53:38.474Z,7.75
2023-03-29T08:56:44.928Z,7.45
2023-03-29T08:59:52.758Z,7.49
2023-03-29T09:02:59.127Z,7.36
2023-03-29T09:06:06.749Z,7.30
2023-03-29T09:09:15.915Z,7.22
2023-03-29T09:12:36.504Z,6.97
2023-03-29T09:16:01.462Z,7.12
2023-03-29T09:19:20.899Z,7.13
2023-03-29T09:22:50.687Z,7.35
2023-03-29T09:26:12.377Z,7.45
2023-03-29T09:29:35.287Z,7.56
2023-03-29T09:32:53.142Z,7.45
2023-03-29T09:36:05.068Z,7.60
2023-03-29T09:39:16.791Z,7.48
2023-03-29T09:42:21.634Z,7.61
2023-03-29T09:45:25.002Z,8.10
2023-03-29T09:48:31.890Z,8.38
2023-03-29T09:51:38.681Z,8.49
2023-03-29T09:54:41.711Z,8.87
2023-03-29T09:57:46.781Z,9.05
2023-03-29T10:00:50.362Z,9.27
2023-03-29T10:03:53.888Z,9.59
2023-03-29T10:06:59.945Z,9.65
2023-03-29T10:10:03.210Z,9.91
2023-03-29T10:13:11.278Z,10.11
2023-03-29T10:16:20.493Z,10.25
2023-03-29T10:19:36.827Z,10.18
2023-03-29T10:22:45.981Z,9.71
2023-03-29T10:25:48.889Z,9.85
2023-03-29T10:28:57.480Z,9.60
2023-03-29T10:32:00.214Z,9.38
2023-03-29T10:35:12.673Z,9.57
2023-03-29T10:38:19.079Z,9.59
2023-03-29T10:41:23.609Z,9.71
2023-03-29T10:44:28.007Z,9.91
2023-03-29T10:47:34.585Z,9.93
2023-03-29T10:50:38.243Z,10.00
2023-03-29T10:53:42.429Z,10.07
2023-03-29T10:57:03.470Z,10.03
2023-03-29T11:00:19.763Z,10.15
2023-03-29T11:03:28.774Z,10.30
2023-03-29T11:06:52.867Z,10.39
2023-03-29T11:10:14.728Z,9.97
2023-03-29T11:13:35.922Z,10.30
2023-03-29T11:17:04.310Z,10.71
2023-03-29T11:20:28.670Z,10.93
2023-03-29T11:24:13.245Z,11.40
2023-03-29T11:27:41.106Z,11.50
2023-03-29T11:31:16.278Z,11.00
2023-03-29T11:34:40.834Z,10.92
2023-03-29T11:37:59.696Z,10.75
2023-03-29T11:41:27.066Z,11.40
2023-03-29T11:44:36.040Z,11.96
2023-03-29T11:47:41.021Z,12.44
2023-03-29T11:51:02.485Z,11.60
2023-03-29T11:54:11.672Z,11.14
2023-03-29T11:57:29.820Z,11.90
2023-03-29T12:00:38.566Z,12.37
2023-03-29T12:03:49.976Z,13.04
2023-03-29T12:07:11.527Z,13.83
2023-03-29T12:10:21.098Z,13.97
2023-03-29T12:13:30.558Z,13.55
2023-03-29T12:16:41.709Z,12.94
2023-03-29T12:19:49.818Z,13.06
2023-03-29T12:22:53.791Z,13.04
2023-03-29T12:26:09.217Z,13.64
2023-03-29T12:29:51.028Z,12.91
2023-03-29T12:33:32.478Z,12.75
2023-03-29T12:37:09.298Z,13.73
2023-03-29T12:40:16.841Z,13.03
2023-03-29T12:43:37.612Z,12.95
2023-03-29T12:46:41.149Z,13.31
2023-03-29T12:49:45.851Z,13.83
2023-03-29T12:52:49.309Z,14.07
2023-03-29T12:56:13.643Z,14.90
2023-03-29T12:59:37.120Z,16.00
2023-03-29T13:02:40.252Z,18.19
2023-03-29T13:05:44.303Z,20.21
2023-03-29T13:09:01.576Z,20.67
2023-03-29T13:12:10.361Z,18.49
2023-03-29T13:15:19.112Z,18.63
2023-03-29T13:18:53.317Z,21.19
2023-03-29T13:22:02.562Z,23.36
2023-03-29T13:25:29.844Z,25.65
2023-03-29T13:29:09.657Z,26.02
2023-03-29T13:32:33.349Z,25.57
2023-03-29T13:35:57.612Z,23.13
2023-03-29T13:39:05.405Z,20.12
2023-03-29T13:42:08.837Z,18.67
2023-03-29T13:45:27.442Z,19.72
2023-03-29T13:48:36.667Z,21.85
2023-03-29T13:51:42.942Z,24.21
2023-03-29T13:54:58.069Z,23.95
2023-03-29T13:58:14.656Z,25.06
2023-03-29T14:01:54.651Z,26.51
2023-03-29T14:05:01.924Z,25.60
2023-03-29T14:08:13.643Z,25.17
2023-03-29T14:11:29.526Z,22.49
2023-03-29T14:14:33.053Z,22.71
2023-03-29T14:17:37.347Z,23.90
2023-03-29T14:20:46.195Z,24.21
2023-03-29T14:23:56.277Z,24.27
2023-03-29T14:27:02.212Z,22.92
2023-03-29T14:30:23.935Z,22.28
2023-03-29T14:33:29.235Z,21.47
2023-03-29T14:36:33.516Z,19.63
2023-03-29T14:39:37.034Z,17.52
2023-03-29T14:42:41.185Z,15.81
2023-03-29T14:45:44.500Z,14.95
2023-03-29T14:48:48.278Z,14.49
2023-03-29T14:51:52.375Z,14.11
2023-03-29T14:54:58.426Z,14.14
2023-03-29T14:58:01.334Z,13.49
2023-03-29T15:01:25.395Z,13.34
2023-03-29T15:04:36.027Z,13.30
2023-03-29T15:07:39.969Z,13.25
2023-03-29T15:10:44.838Z,12.92
2023-03-29T15:13:51.488Z,12.23
2023-03-29T15:17:03.199Z,11.97
2023-03-29T15:20:27.979Z,11.98
